Flight Track Log - Related Links

Times and Time Zones

All times are in EDT time to prevent confusion due to time zone crossing. See the DAL2577 flight status page for this flight to view local times or setup timezone preferences in your user account.

Time Position Orientation Groundspeed Altitude Reporting Facility
EDT Latitude Longitude Course Direction KTS MPH feet Rate Location/Type
Sun 10:30:42 PM 40.8086 -111.9786 99° East 182 209 4,800  Level Salt Lake Center
Sun 10:31:12 PM 40.8350 -111.9811 356° North 186 214 5,700 1,780 Climbing Salt Lake Center
Sun 10:32:13 PM 40.9033 -111.9889 355° North 268 308 7,500 1,433 Climbing Salt Lake Center
Sun 10:32:19 PM 40.8978 -111.9881 174° South 232 267 7,300 2,824 Descending Salt Lake Center
Sun 10:33:00 PM 40.7815 -111.4498 91° East  Level Estimated
Sun 10:33:21 PM 40.9697 -111.9894 359° North 256 295 10,700  Level Salt Lake Center
Sun 10:34:00 PM 40.7787 -111.2738 96° East  Level Estimated
Sun 10:34:23 PM 40.9844 -111.8756 80° East 309 356 13,000  Level Salt Lake Center
Sun 10:35:00 PM 40.7756 -111.0978 99° East  Level Estimated
Sun 10:35:24 PM 40.9542 -111.7525 108° East 366 421 13,900  Level Salt Lake Center
Sun 10:36:26 PM 40.9233 -111.6081 106° East 409 471 16,000 2,032 Climbing Salt Lake Center
Sun 10:37:28 PM 40.9133 -111.4531 95° East 427 491 18,100 2,032 Climbing Salt Lake Center
Sun 10:38:30 PM 40.8928 -111.2619 98° East 442 509 20,200 1,951 Climbing Salt Lake Center
Sun 10:39:31 PM 40.8725 -111.0964 99° East 456 525 22,100 1,805 Climbing Salt Lake Center
Sun 10:40:33 PM 40.8525 -110.9267 99° East 465 535 23,900 1,452 Climbing Salt Lake Center
Sun 10:41:35 PM 40.8314 -110.7542 99° East 474 545 25,100 1,317 Climbing Salt Lake Center
Sun 10:42:36 PM 40.8086 -110.5669 99° East 485 558 26,600 2,000 Climbing Salt Lake Center
Sun 10:43:38 PM 40.7881 -110.4031 99° East 476 548 29,200 1,984 Climbing Salt Lake Center
Sun 10:44:40 PM 40.7636 -110.2169 100° East 457 526 30,700 1,122 Climbing Salt Lake Center
Sun 10:45:41 PM 40.7439 -110.0581 99° East 457 526 31,500 537 Climbing Salt Lake Center
Sun 10:46:43 PM 40.7314 -109.8944 96° East 463 533 31,800 629 Climbing Salt Lake Center
Sun 10:47:45 PM 40.7178 -109.6986 95° East 476 548 32,800 1,016 Climbing Salt Lake Center
Sun 10:48:47 PM 40.7061 -109.5294 95° East 479 551 33,900 927 Climbing Salt Lake Center
Sun 10:49:48 PM 40.6903 -109.3333 96° East 482 555 34,700 537 Climbing Salt Lake Center
Sun 10:50:50 PM 40.6833 -109.1444 93° East 485 558 35,000 170 Climbing Salt Lake Center
Sun 10:51:34 PM 40.6869 -109.0164 88° East 487 560 35,000  Level Denver Center
Sun 10:52:36 PM 40.6900 -108.8358 89° East 503 579 35,000 -48 Level Denver Center
Sun 10:53:38 PM 40.6936 -108.6322 89° East 503 579 34,900  Descending Denver Center
Sun 10:54:39 PM 40.6953 -108.4594 89° East 494 568 35,000 49 Climbing Denver Center
Sun 10:55:41 PM 40.6972 -108.2844 89° East 494 568 35,000  Level Denver Center
Sun 10:56:42 PM 40.6994 -108.0753 89° East 507 583 35,000  Level Denver Center
Sun 10:57:44 PM 40.7011 -107.8953 89° East 510 587 35,000  Level Denver Center
Sun 10:58:46 PM 40.7022 -107.6836 90° East 513 590 35,000  Level Denver Center
Sun 10:59:47 PM 40.7036 -107.5039 89° East 513 590 35,000 -49 Level Denver Center
Sun 11:00:49 PM 40.7044 -107.3225 90° East 514 592 34,900  Descending Denver Center
Sun 11:01:50 PM 40.7058 -107.1239 89° East 520 598 35,000 49 Climbing Denver Center
Sun 11:02:52 PM 40.7044 -106.9314 90° East 522 601 35,000  Level Denver Center
Sun 11:04:05 PM 40.7044 -106.7386 90° East 523 602 35,000 44 Level Denver Center
Sun 11:05:07 PM 40.7036 -106.4947 90° East 524 603 35,100  Climbing Denver Center
Sun 11:06:09 PM 40.7025 -106.2828 90° East 523 602 35,000 -98 Descending Denver Center
Sun 11:07:10 PM 40.7011 -106.0953 90° East 522 601 34,900 -49 Descending Denver Center
Sun 11:08:12 PM 40.6997 -105.9069 90° East 518 596 34,900 49 Level Denver Center
Sun 11:09:13 PM 40.6972 -105.7147 91° East 521 600 35,000 98 Climbing Denver Center
Sun 11:10:14 PM 40.6956 -105.5214 91° East 525 604 35,100  Climbing Denver Center
Sun 11:11:16 PM 40.6925 -105.3314 91° East 523 602 35,000 -49 Descending Denver Center
Sun 11:12:17 PM 40.6897 -105.1428 91° East 517 595 35,000  Level Denver Center
Sun 11:13:19 PM 40.6864 -104.9519 91° East 517 595 35,000  Level Denver Center
Sun 11:14:20 PM 40.6825 -104.7242 91° East 519 597 35,000  Level Denver Center
Sun 11:15:21 PM 40.6781 -104.5322 92° East 522 601 35,000  Level Denver Center
Sun 11:16:22 PM 40.6742 -104.3797 92° East 522 601 35,000  Level Denver Center
Sun 11:17:24 PM 40.6697 -104.1492 91° East 523 602 35,000  Level Denver Center
Sun 11:18:26 PM 40.6639 -103.9564 92° East 524 603 35,000  Level Denver Center
Sun 11:19:27 PM 40.6592 -103.7661 92° East 524 603 35,000  Level Denver Center
Sun 11:20:28 PM 40.6531 -103.5714 92° East 526 605 35,000  Level Denver Center
Sun 11:21:30 PM 40.6481 -103.3778 92° East 527 606 35,000  Level Denver Center
Sun 11:22:31 PM 40.6414 -103.1828 93° East 532 612 35,000  Level Denver Center
Sun 11:23:33 PM 40.6339 -102.9483 92° East 533 613 35,000  Level Denver Center
Sun 11:24:34 PM 40.6275 -102.7925 93° East 533 613 35,000  Level Denver Center
Sun 11:25:35 PM 40.6189 -102.5514 93° East 533 613 35,000  Level Denver Center
Sun 11:26:37 PM 40.6125 -102.3639 93° East 534 615 35,000  Level Denver Center
Sun 11:27:38 PM 40.6042 -102.1772 93° East 534 615 35,000  Level Denver Center
Sun 11:28:39 PM 40.5947 -101.9600 93° East 534 615 35,000  Level Denver Center
Sun 11:29:41 PM 40.5869 -101.7736 93° East 534 615 35,000  Level Denver Center
Sun 11:30:42 PM 40.5772 -101.5550 93° East 536 617 35,000  Level Denver Center
Sun 11:31:43 PM 40.5678 -101.3681 94° East 536 617 35,000  Level Denver Center
Sun 11:32:45 PM 40.5586 -101.1817 94° East 536 617 35,000  Level Denver Center
Sun 11:33:46 PM 40.5478 -100.9642 94° East 537 618 35,000  Level Denver Center
Sun 11:34:47 PM 40.5378 -100.7794 94° East 537 618 35,000  Level Denver Center
Sun 11:35:49 PM 40.5261 -100.5658 94° East 536 617 35,000  Level Denver Center
Sun 11:36:50 PM 40.5156 -100.3817 94° East 535 616 35,000  Level Denver Center
Sun 11:37:51 PM 40.5031 -100.1644 94° East 535 616 35,000  Level Denver Center
Sun 11:38:52 PM 40.4922 -99.9783 94° East 535 616 35,000  Level Denver Center
Sun 11:39:54 PM 40.4783 -99.7614 95° East 538 619 35,000  Level Denver Center
Sun 11:40:55 PM 40.4656 -99.5656 95° East 539 620 35,000  Level Denver Center
Sun 11:41:56 PM 40.4533 -99.3692 95° East 539 620 35,000  Level Denver Center
Sun 11:42:58 PM 40.4397 -99.1731 95° East 543 625 35,000  Level Denver Center
Sun 11:43:59 PM 40.4267 -98.9758 95° East 543 625 35,000  Level Denver Center
Sun 11:45:00 PM 40.4128 -98.7778 95° East 545 627 35,000  Level Denver Center
Sun 11:46:10 PM 40.3931 -98.5381 96° East 549 632 35,000  Level Minneapolis Center
Sun 11:47:11 PM 40.3494 -98.3481 107° East 551 634 35,000  Level Minneapolis Center
Sun 11:48:11 PM 40.2978 -98.1611 110° East 550 633 35,000  Level Minneapolis Center
Sun 11:49:12 PM 40.2464 -97.9728 110° East 550 633 35,000  Level Minneapolis Center
Sun 11:50:13 PM 40.1950 -97.7847 110° East 550 633 35,000  Level Minneapolis Center
Sun 11:51:14 PM 40.1431 -97.5969 110° East 550 633 35,000 -148 Level Minneapolis Center
Sun 11:52:15 PM 40.0894 -97.4089 110° East 551 634 34,700 -645 Descending Minneapolis Center
Sun 11:53:15 PM 40.0336 -97.2089 110° East 540 621 33,700 -992 Descending Minneapolis Center
Sun 11:54:16 PM 39.9819 -97.0297 111° Southeast 533 613 32,700 -934 Descending Minneapolis Center
Sun 11:55:17 PM 39.9303 -96.8489 110° East 533 613 31,800 -1,230 Descending Minneapolis Center
Sun 11:56:18 PM 39.8783 -96.6692 111° Southeast 533 613 30,200 -893 Descending Minneapolis Center
Sun 11:57:18 PM 39.8278 -96.4917 110° East 531 611 30,000 -200 Descending Minneapolis Center
Sun 11:58:18 PM 39.7736 -96.3078 111° Southeast 525 604 29,800 -2,200 Descending Kansas City Center
Mon 12:00:18 AM 39.6742 -95.9669 111° Southeast 527 606 23,400 -3,381 Descending Kansas City Center
Mon 12:01:19 AM 39.6150 -95.7678 111° Southeast 531 611 19,600 -3,372 Descending Kansas City Center
Mon 12:02:19 AM 39.5678 -95.6100 111° Southeast 495 570 16,600 -2,876 Descending Kansas City Center
Mon 12:03:20 AM 39.5178 -95.4467 112° Southeast 446 513 13,800 -2,705 Descending Kansas City Center
Mon 12:04:21 AM 39.4914 -95.3044 103° East 403 464 11,100 -1,415 Descending Kansas City Center
Mon 12:05:23 AM 39.4800 -95.1894 97° East 338 389 10,900 -1,082 Descending Kansas City Center
Mon 12:06:23 AM 39.4783 -95.0783 91° East 325 374 8,900 -1,918 Descending Kansas City Center
Mon 12:07:25 AM 39.4814 -94.9739 88° East 298 343 7,000 -1,450 Descending Kansas City Center
Mon 12:08:23 AM 39.4958 -94.8656 80° East 268 308 6,000 -1,017 Descending Kansas City Center
Mon 12:09:23 AM 39.5078 -94.7833 79° East 248 285 5,000 -984 Descending Kansas City Center
Mon 12:10:25 AM 39.5106 -94.7061 87° East 226 260 4,000 -968 Descending Kansas City Center
Mon 12:11:27 AM 39.4594 -94.6628 147° Southeast 199 229 3,000 -500 Descending Kansas City Center
Mon 12:12:25 AM 39.4144 -94.6700 187° South 169 194 3,000 -298 Level Kansas City Center
Mon 12:13:28 AM 39.3725 -94.6822 193° South 166 191 2,400 -689 Descending Kansas City Center
Mon 12:14:27 AM 39.3328 -94.6936 193° South 130 150 1,600 -700 Descending Kansas City Center
Mon 12:15:28 AM 39.3000 -94.7036 193° South 129 148 1,000 -590 Descending Kansas City Center

Login

Don't have an account? Register now (free) for customized features, flight alerts, and more!